sensor_id;sensor_type;location;lat;lon;timestamp;P1;durP1;ratioP1;P2;durP2;ratioP2
15476;SDS011;7840;42.702;23.296;2024-02-26T00:02:01;3.07;;;2.87;;
15476;SDS011;7840;42.702;23.296;2024-02-26T00:04:29;2.63;;;2.43;;
15476;SDS011;7840;42.702;23.296;2024-02-26T00:06:56;3.80;;;3.50;;
15476;SDS011;7840;42.702;23.296;2024-02-26T00:09:25;2.77;;;2.57;;
15476;SDS011;7840;42.702;23.296;2024-02-26T00:11:53;2.87;;;2.67;;
15476;SDS011;7840;42.702;23.296;2024-02-26T00:14:20;2.47;;;2.27;;
15476;SDS011;7840;42.702;23.296;2024-02-26T00:16:48;5.03;;;4.40;;
15476;SDS011;7840;42.702;23.296;2024-02-26T00:19:17;4.20;;;3.60;;
15476;SDS011;7840;42.702;23.296;2024-02-26T00:21:44;3.10;;;2.80;;
15476;SDS011;7840;42.702;23.296;2024-02-26T00:24:12;4.03;;;3.63;;
15476;SDS011;7840;42.702;23.296;2024-02-26T00:26:39;1.93;;;1.83;;
15476;SDS011;7840;42.702;23.296;2024-02-26T00:29:07;4.00;;;3.63;;
15476;SDS011;7840;42.702;23.296;2024-02-26T00:31:34;3.27;;;2.97;;
15476;SDS011;7840;42.702;23.296;2024-02-26T00:34:03;1.93;;;1.83;;
15476;SDS011;7840;42.702;23.296;2024-02-26T00:36:32;4.13;;;3.73;;
15476;SDS011;7840;42.702;23.296;2024-02-26T00:38:59;6.97;;;3.03;;
15476;SDS011;7840;42.702;23.296;2024-02-26T00:41:28;4.60;;;3.97;;
15476;SDS011;7840;42.702;23.296;2024-02-26T00:43:56;3.47;;;3.17;;
15476;SDS011;7840;42.702;23.296;2024-02-26T00:46:23;2.93;;;2.73;;
15476;SDS011;7840;42.702;23.296;2024-02-26T00:48:51;2.77;;;2.63;;
15476;SDS011;7840;42.702;23.296;2024-02-26T00:51:18;2.70;;;2.50;;
15476;SDS011;7840;42.702;23.296;2024-02-26T00:53:47;1.53;;;1.43;;
15476;SDS011;7840;42.702;23.296;2024-02-26T00:56:15;2.30;;;2.10;;
15476;SDS011;7840;42.702;23.296;2024-02-26T00:58:42;3.53;;;3.23;;
15476;SDS011;7840;42.702;23.296;2024-02-26T01:01:09;2.83;;;2.63;;
15476;SDS011;7840;42.702;23.296;2024-02-26T01:03:37;2.97;;;2.63;;
15476;SDS011;7840;42.702;23.296;2024-02-26T01:06:04;4.47;;;2.93;;
15476;SDS011;7840;42.702;23.296;2024-02-26T01:08:32;3.50;;;2.97;;
15476;SDS011;7840;42.702;23.296;2024-02-26T01:11:02;3.27;;;3.07;;
15476;SDS011;7840;42.702;23.296;2024-02-26T01:13:29;5.43;;;2.87;;
15476;SDS011;7840;42.702;23.296;2024-02-26T01:15:57;2.03;;;1.90;;
15476;SDS011;7840;42.702;23.296;2024-02-26T01:18:27;3.70;;;3.40;;
15476;SDS011;7840;42.702;23.296;2024-02-26T01:20:55;1.77;;;1.67;;
15476;SDS011;7840;42.702;23.296;2024-02-26T01:23:22;2.80;;;1.50;;
15476;SDS011;7840;42.702;23.296;2024-02-26T01:25:49;3.23;;;2.23;;
15476;SDS011;7840;42.702;23.296;2024-02-26T01:28:18;3.07;;;2.83;;
15476;SDS011;7840;42.702;23.296;2024-02-26T01:30:45;7.50;;;2.60;;
15476;SDS011;7840;42.702;23.296;2024-02-26T01:33:16;2.60;;;2.40;;
15476;SDS011;7840;42.702;23.296;2024-02-26T01:35:43;3.43;;;2.77;;
15476;SDS011;7840;42.702;23.296;2024-02-26T01:38:11;3.87;;;3.37;;
15476;SDS011;7840;42.702;23.296;2024-02-26T01:40:39;2.90;;;1.50;;
15476;SDS011;7840;42.702;23.296;2024-02-26T01:43:09;2.87;;;2.50;;
15476;SDS011;7840;42.702;23.296;2024-02-26T01:45:38;2.33;;;2.23;;
15476;SDS011;7840;42.702;23.296;2024-02-26T01:48:06;2.87;;;2.60;;
15476;SDS011;7840;42.702;23.296;2024-02-26T01:50:35;2.93;;;2.73;;
15476;SDS011;7840;42.702;23.296;2024-02-26T01:53:04;1.90;;;1.80;;
15476;SDS011;7840;42.702;23.296;2024-02-26T01:55:31;2.57;;;2.40;;
15476;SDS011;7840;42.702;23.296;2024-02-26T01:57:59;1.97;;;1.87;;
15476;SDS011;7840;42.702;23.296;2024-02-26T02:00:27;1.57;;;1.47;;
15476;SDS011;7840;42.702;23.296;2024-02-26T02:02:56;1.63;;;1.53;;
15476;SDS011;7840;42.702;23.296;2024-02-26T02:05:23;1.43;;;1.37;;
15476;SDS011;7840;42.702;23.296;2024-02-26T02:07:51;4.23;;;2.47;;
15476;SDS011;7840;42.702;23.296;2024-02-26T02:10:19;2.67;;;2.47;;
15476;SDS011;7840;42.702;23.296;2024-02-26T02:12:50;3.03;;;2.63;;
15476;SDS011;7840;42.702;23.296;2024-02-26T02:15:18;2.90;;;2.70;;
15476;SDS011;7840;42.702;23.296;2024-02-26T02:17:45;2.70;;;1.70;;
15476;SDS011;7840;42.702;23.296;2024-02-26T02:20:16;1.87;;;1.77;;
15476;SDS011;7840;42.702;23.296;2024-02-26T02:22:45;3.07;;;2.37;;
15476;SDS011;7840;42.702;23.296;2024-02-26T02:25:12;2.53;;;1.83;;
15476;SDS011;7840;42.702;23.296;2024-02-26T02:27:40;2.40;;;2.30;;
15476;SDS011;7840;42.702;23.296;2024-02-26T02:30:08;2.07;;;1.97;;
15476;SDS011;7840;42.702;23.296;2024-02-26T02:35:02;2.17;;;1.90;;
15476;SDS011;7840;42.702;23.296;2024-02-26T02:37:29;2.17;;;2.07;;
15476;SDS011;7840;42.702;23.296;2024-02-26T02:39:58;1.90;;;1.57;;
15476;SDS011;7840;42.702;23.296;2024-02-26T02:42:25;2.40;;;2.20;;
15476;SDS011;7840;42.702;23.296;2024-02-26T02:44:53;2.27;;;2.17;;
15476;SDS011;7840;42.702;23.296;2024-02-26T02:47:20;1.70;;;1.60;;
15476;SDS011;7840;42.702;23.296;2024-02-26T02:49:48;1.97;;;1.87;;
15476;SDS011;7840;42.702;23.296;2024-02-26T02:52:15;2.37;;;2.17;;
15476;SDS011;7840;42.702;23.296;2024-02-26T02:54:43;2.53;;;1.73;;
15476;SDS011;7840;42.702;23.296;2024-02-26T02:57:13;2.87;;;1.60;;
15476;SDS011;7840;42.702;23.296;2024-02-26T02:59:40;2.27;;;2.17;;
15476;SDS011;7840;42.702;23.296;2024-02-26T03:02:08;1.97;;;1.87;;
15476;SDS011;7840;42.702;23.296;2024-02-26T03:04:35;1.30;;;1.30;;
15476;SDS011;7840;42.702;23.296;2024-02-26T03:07:03;2.70;;;2.50;;
15476;SDS011;7840;42.702;23.296;2024-02-26T03:09:30;2.30;;;1.30;;
15476;SDS011;7840;42.702;23.296;2024-02-26T03:11:58;2.80;;;2.60;;
15476;SDS011;7840;42.702;23.296;2024-02-26T03:14:27;1.57;;;1.47;;
15476;SDS011;7840;42.702;23.296;2024-02-26T03:16:54;2.60;;;1.90;;
15476;SDS011;7840;42.702;23.296;2024-02-26T03:19:22;0.73;;;0.73;;
15476;SDS011;7840;42.702;23.296;2024-02-26T03:21:49;1.13;;;1.00;;
15476;SDS011;7840;42.702;23.296;2024-02-26T03:24:19;1.70;;;1.40;;
15476;SDS011;7840;42.702;23.296;2024-02-26T03:26:46;1.60;;;1.50;;
15476;SDS011;7840;42.702;23.296;2024-02-26T03:29:14;2.07;;;1.97;;
15476;SDS011;7840;42.702;23.296;2024-02-26T03:31:42;1.50;;;1.33;;
15476;SDS011;7840;42.702;23.296;2024-02-26T03:34:10;2.60;;;2.40;;
15476;SDS011;7840;42.702;23.296;2024-02-26T03:36:39;1.70;;;1.60;;
15476;SDS011;7840;42.702;23.296;2024-02-26T03:39:06;2.33;;;2.23;;
15476;SDS011;7840;42.702;23.296;2024-02-26T03:41:34;1.10;;;1.10;;
15476;SDS011;7840;42.702;23.296;2024-02-26T03:44:02;2.03;;;1.93;;
15476;SDS011;7840;42.702;23.296;2024-02-26T03:46:33;14.07;;;1.50;;
15476;SDS011;7840;42.702;23.296;2024-02-26T03:49:02;0.90;;;0.90;;
15476;SDS011;7840;42.702;23.296;2024-02-26T03:51:29;1.27;;;1.10;;
15476;SDS011;7840;42.702;23.296;2024-02-26T03:53:58;1.97;;;1.87;;
15476;SDS011;7840;42.702;23.296;2024-02-26T03:56:25;1.97;;;1.87;;
15476;SDS011;7840;42.702;23.296;2024-02-26T03:58:53;1.57;;;1.47;;
15476;SDS011;7840;42.702;23.296;2024-02-26T04:01:20;1.17;;;1.07;;
15476;SDS011;7840;42.702;23.296;2024-02-26T04:03:48;1.63;;;1.53;;
15476;SDS011;7840;42.702;23.296;2024-02-26T04:06:17;0.93;;;0.93;;
15476;SDS011;7840;42.702;23.296;2024-02-26T04:08:46;4.73;;;1.63;;
15476;SDS011;7840;42.702;23.296;2024-02-26T04:11:13;1.23;;;1.23;;
15476;SDS011;7840;42.702;23.296;2024-02-26T04:13:43;1.60;;;1.50;;
15476;SDS011;7840;42.702;23.296;2024-02-26T04:16:14;0.53;;;0.53;;
15476;SDS011;7840;42.702;23.296;2024-02-26T04:18:42;1.23;;;1.23;;
15476;SDS011;7840;42.702;23.296;2024-02-26T04:21:09;1.47;;;1.37;;
15476;SDS011;7840;42.702;23.296;2024-02-26T04:23:38;1.00;;;1.00;;
15476;SDS011;7840;42.702;23.296;2024-02-26T04:26:05;1.97;;;1.83;;
15476;SDS011;7840;42.702;23.296;2024-02-26T04:28:33;2.10;;;1.90;;
15476;SDS011;7840;42.702;23.296;2024-02-26T04:31:01;2.10;;;2.00;;
15476;SDS011;7840;42.702;23.296;2024-02-26T04:33:28;1.77;;;1.67;;
15476;SDS011;7840;42.702;23.296;2024-02-26T04:35:56;2.23;;;2.03;;
15476;SDS011;7840;42.702;23.296;2024-02-26T04:38:23;1.63;;;1.53;;
15476;SDS011;7840;42.702;23.296;2024-02-26T04:40:52;1.00;;;1.00;;
15476;SDS011;7840;42.702;23.296;2024-02-26T04:43:20;3.10;;;2.20;;
15476;SDS011;7840;42.702;23.296;2024-02-26T04:45:47;2.83;;;2.37;;
15476;SDS011;7840;42.702;23.296;2024-02-26T04:48:14;2.10;;;1.93;;
15476;SDS011;7840;42.702;23.296;2024-02-26T04:50:42;3.03;;;2.13;;
15476;SDS011;7840;42.702;23.296;2024-02-26T04:53:09;2.73;;;2.53;;
15476;SDS011;7840;42.702;23.296;2024-02-26T04:55:36;2.97;;;2.77;;
15476;SDS011;7840;42.702;23.296;2024-02-26T04:58:09;2.37;;;2.17;;
15476;SDS011;7840;42.702;23.296;2024-02-26T05:00:36;1.83;;;1.73;;
15476;SDS011;7840;42.702;23.296;2024-02-26T05:05:30;2.37;;;2.27;;
15476;SDS011;7840;42.702;23.296;2024-02-26T05:07:57;1.27;;;1.27;;
15476;SDS011;7840;42.702;23.296;2024-02-26T05:10:25;2.03;;;1.67;;
15476;SDS011;7840;42.702;23.296;2024-02-26T05:12:53;1.80;;;1.70;;
15476;SDS011;7840;42.702;23.296;2024-02-26T05:15:21;2.40;;;2.27;;
15476;SDS011;7840;42.702;23.296;2024-02-26T05:17:49;1.13;;;1.13;;
15476;SDS011;7840;42.702;23.296;2024-02-26T05:20:18;1.80;;;1.73;;
15476;SDS011;7840;42.702;23.296;2024-02-26T05:22:45;3.53;;;3.33;;
15476;SDS011;7840;42.702;23.296;2024-02-26T05:25:14;2.80;;;2.60;;
15476;SDS011;7840;42.702;23.296;2024-02-26T05:27:42;3.20;;;2.87;;
15476;SDS011;7840;42.702;23.296;2024-02-26T05:30:10;2.33;;;2.17;;
15476;SDS011;7840;42.702;23.296;2024-02-26T05:32:39;2.47;;;2.37;;
15476;SDS011;7840;42.702;23.296;2024-02-26T05:35:06;2.83;;;2.73;;
15476;SDS011;7840;42.702;23.296;2024-02-26T05:37:42;4.33;;;3.93;;
15476;SDS011;7840;42.702;23.296;2024-02-26T05:40:10;2.73;;;2.53;;
15476;SDS011;7840;42.702;23.296;2024-02-26T05:42:36;3.20;;;2.90;;
15476;SDS011;7840;42.702;23.296;2024-02-26T05:45:04;3.87;;;3.03;;
15476;SDS011;7840;42.702;23.296;2024-02-26T05:47:32;2.90;;;2.70;;
15476;SDS011;7840;42.702;23.296;2024-02-26T05:50:01;1.97;;;1.87;;
15476;SDS011;7840;42.702;23.296;2024-02-26T05:52:28;3.03;;;2.77;;
15476;SDS011;7840;42.702;23.296;2024-02-26T05:54:56;4.87;;;2.83;;
15476;SDS011;7840;42.702;23.296;2024-02-26T05:57:24;2.07;;;1.97;;
15476;SDS011;7840;42.702;23.296;2024-02-26T05:59:51;2.67;;;2.50;;
15476;SDS011;7840;42.702;23.296;2024-02-26T06:02:19;2.83;;;2.63;;
15476;SDS011;7840;42.702;23.296;2024-02-26T06:04:46;2.10;;;2.00;;
15476;SDS011;7840;42.702;23.296;2024-02-26T06:07:15;2.77;;;2.13;;
15476;SDS011;7840;42.702;23.296;2024-02-26T06:09:42;1.93;;;1.83;;
15476;SDS011;7840;42.702;23.296;2024-02-26T06:12:10;2.07;;;1.90;;
15476;SDS011;7840;42.702;23.296;2024-02-26T06:14:37;3.40;;;2.40;;
15476;SDS011;7840;42.702;23.296;2024-02-26T06:17:05;4.27;;;2.83;;
15476;SDS011;7840;42.702;23.296;2024-02-26T06:19:33;2.23;;;2.03;;
15476;SDS011;7840;42.702;23.296;2024-02-26T06:22:01;2.10;;;2.00;;
15476;SDS011;7840;42.702;23.296;2024-02-26T06:24:30;1.87;;;1.40;;
15476;SDS011;7840;42.702;23.296;2024-02-26T06:26:57;2.13;;;2.03;;
15476;SDS011;7840;42.702;23.296;2024-02-26T06:29:24;4.37;;;2.53;;
15476;SDS011;7840;42.702;23.296;2024-02-26T06:31:52;1.77;;;1.67;;
15476;SDS011;7840;42.702;23.296;2024-02-26T06:34:19;2.47;;;2.27;;
15476;SDS011;7840;42.702;23.296;2024-02-26T06:36:47;1.57;;;1.50;;
15476;SDS011;7840;42.702;23.296;2024-02-26T06:39:14;2.60;;;2.40;;
15476;SDS011;7840;42.702;23.296;2024-02-26T06:41:44;1.37;;;1.27;;
15476;SDS011;7840;42.702;23.296;2024-02-26T06:44:12;1.10;;;1.10;;
15476;SDS011;7840;42.702;23.296;2024-02-26T06:46:40;1.57;;;1.47;;
15476;SDS011;7840;42.702;23.296;2024-02-26T06:49:07;1.67;;;1.57;;
15476;SDS011;7840;42.702;23.296;2024-02-26T06:51:35;1.70;;;1.60;;
15476;SDS011;7840;42.702;23.296;2024-02-26T06:54:02;1.17;;;1.13;;
15476;SDS011;7840;42.702;23.296;2024-02-26T06:56:30;1.57;;;1.47;;
15476;SDS011;7840;42.702;23.296;2024-02-26T06:58:59;3.17;;;2.87;;
15476;SDS011;7840;42.702;23.296;2024-02-26T07:01:26;1.13;;;1.13;;
15476;SDS011;7840;42.702;23.296;2024-02-26T07:03:54;1.27;;;1.20;;
15476;SDS011;7840;42.702;23.296;2024-02-26T07:06:21;1.57;;;1.00;;
15476;SDS011;7840;42.702;23.296;2024-02-26T07:08:48;1.23;;;1.23;;
15476;SDS011;7840;42.702;23.296;2024-02-26T07:11:16;1.53;;;1.43;;
15476;SDS011;7840;42.702;23.296;2024-02-26T07:13:45;1.53;;;1.43;;
15476;SDS011;7840;42.702;23.296;2024-02-26T07:16:13;1.97;;;1.80;;
15476;SDS011;7840;42.702;23.296;2024-02-26T07:18:41;1.97;;;1.67;;
15476;SDS011;7840;42.702;23.296;2024-02-26T07:21:09;1.40;;;1.27;;
15476;SDS011;7840;42.702;23.296;2024-02-26T07:23:36;1.70;;;1.60;;
15476;SDS011;7840;42.702;23.296;2024-02-26T07:26:04;1.23;;;1.23;;
15476;SDS011;7840;42.702;23.296;2024-02-26T07:28:33;1.33;;;1.23;;
15476;SDS011;7840;42.702;23.296;2024-02-26T07:31:01;2.57;;;2.27;;
15476;SDS011;7840;42.702;23.296;2024-02-26T07:33:31;3.30;;;3.00;;
15476;SDS011;7840;42.702;23.296;2024-02-26T07:35:58;4.60;;;3.30;;
15476;SDS011;7840;42.702;23.296;2024-02-26T07:38:26;1.93;;;1.83;;
15476;SDS011;7840;42.702;23.296;2024-02-26T07:40:53;1.37;;;1.37;;
15476;SDS011;7840;42.702;23.296;2024-02-26T07:43:22;4.53;;;2.97;;
15476;SDS011;7840;42.702;23.296;2024-02-26T07:45:49;2.30;;;2.10;;
15476;SDS011;7840;42.702;23.296;2024-02-26T07:48:17;2.77;;;2.53;;
15476;SDS011;7840;42.702;23.296;2024-02-26T07:50:45;1.93;;;1.83;;
15476;SDS011;7840;42.702;23.296;2024-02-26T07:53:13;1.83;;;1.67;;
15476;SDS011;7840;42.702;23.296;2024-02-26T07:55:42;2.23;;;2.13;;
15476;SDS011;7840;42.702;23.296;2024-02-26T07:58:10;1.53;;;1.43;;
15476;SDS011;7840;42.702;23.296;2024-02-26T08:00:37;1.70;;;1.60;;
15476;SDS011;7840;42.702;23.296;2024-02-26T08:03:05;3.03;;;1.40;;
15476;SDS011;7840;42.702;23.296;2024-02-26T08:05:33;1.33;;;1.27;;
15476;SDS011;7840;42.702;23.296;2024-02-26T08:08:01;1.03;;;1.03;;
15476;SDS011;7840;42.702;23.296;2024-02-26T08:10:29;1.73;;;1.50;;
15476;SDS011;7840;42.702;23.296;2024-02-26T08:12:56;2.57;;;2.37;;
15476;SDS011;7840;42.702;23.296;2024-02-26T08:15:30;1.13;;;1.13;;
15476;SDS011;7840;42.702;23.296;2024-02-26T08:17:57;1.67;;;1.57;;
15476;SDS011;7840;42.702;23.296;2024-02-26T08:20:27;1.60;;;1.50;;
15476;SDS011;7840;42.702;23.296;2024-02-26T08:22:54;1.42;;;1.33;;
15476;SDS011;7840;42.702;23.296;2024-02-26T08:25:23;2.57;;;2.37;;
15476;SDS011;7840;42.702;23.296;2024-02-26T08:27:51;2.33;;;2.23;;
15476;SDS011;7840;42.702;23.296;2024-02-26T08:30:18;2.70;;;2.50;;
15476;SDS011;7840;42.702;23.296;2024-02-26T08:32:45;1.70;;;1.60;;
15476;SDS011;7840;42.702;23.296;2024-02-26T08:35:13;1.17;;;1.17;;
15476;SDS011;7840;42.702;23.296;2024-02-26T08:37:43;1.33;;;1.27;;
15476;SDS011;7840;42.702;23.296;2024-02-26T08:40:11;2.07;;;1.97;;
15476;SDS011;7840;42.702;23.296;2024-02-26T08:42:40;2.77;;;2.57;;
15476;SDS011;7840;42.702;23.296;2024-02-26T08:45:08;1.50;;;1.40;;
15476;SDS011;7840;42.702;23.296;2024-02-26T08:47:36;2.13;;;1.63;;
15476;SDS011;7840;42.702;23.296;2024-02-26T08:50:04;2.27;;;2.07;;
15476;SDS011;7840;42.702;23.296;2024-02-26T08:52:31;1.40;;;1.30;;
15476;SDS011;7840;42.702;23.296;2024-02-26T08:55:04;0.77;;;0.77;;
15476;SDS011;7840;42.702;23.296;2024-02-26T08:57:34;1.67;;;1.58;;
15476;SDS011;7840;42.702;23.296;2024-02-26T09:00:03;0.82;;;0.80;;
15476;SDS011;7840;42.702;23.296;2024-02-26T09:02:30;1.63;;;1.52;;
15476;SDS011;7840;42.702;23.296;2024-02-26T09:04:58;0.95;;;0.95;;
15476;SDS011;7840;42.702;23.296;2024-02-26T09:07:26;0.30;;;0.30;;
15476;SDS011;7840;42.702;23.296;2024-02-26T09:10:05;0.30;;;0.30;;
15476;SDS011;7840;42.702;23.296;2024-02-26T09:12:35;1.23;;;1.13;;
15476;SDS011;7840;42.702;23.296;2024-02-26T09:15:06;0.85;;;0.85;;
15476;SDS011;7840;42.702;23.296;2024-02-26T09:17:34;1.48;;;1.38;;
15476;SDS011;7840;42.702;23.296;2024-02-26T09:20:01;0.77;;;0.77;;
15476;SDS011;7840;42.702;23.296;2024-02-26T09:22:32;2.30;;;1.58;;
15476;SDS011;7840;42.702;23.296;2024-02-26T09:25:00;1.38;;;1.27;;
15476;SDS011;7840;42.702;23.296;2024-02-26T09:27:27;1.85;;;1.52;;
15476;SDS011;7840;42.702;23.296;2024-02-26T09:29:55;0.93;;;0.93;;
15476;SDS011;7840;42.702;23.296;2024-02-26T09:32:24;1.02;;;1.02;;
15476;SDS011;7840;42.702;23.296;2024-02-26T09:34:52;0.90;;;0.90;;
15476;SDS011;7840;42.702;23.296;2024-02-26T09:37:19;1.55;;;1.30;;
15476;SDS011;7840;42.702;23.296;2024-02-26T09:39:46;1.55;;;0.88;;
15476;SDS011;7840;42.702;23.296;2024-02-26T09:42:14;1.30;;;1.20;;
15476;SDS011;7840;42.702;23.296;2024-02-26T09:44:42;0.50;;;0.50;;
15476;SDS011;7840;42.702;23.296;2024-02-26T09:47:11;6.03;;;0.60;;
15476;SDS011;7840;42.702;23.296;2024-02-26T09:49:42;0.70;;;0.65;;
15476;SDS011;7840;42.702;23.296;2024-02-26T09:52:09;2.78;;;2.08;;
15476;SDS011;7840;42.702;23.296;2024-02-26T09:54:37;0.93;;;0.85;;
15476;SDS011;7840;42.702;23.296;2024-02-26T09:57:05;0.47;;;0.47;;
15476;SDS011;7840;42.702;23.296;2024-02-26T09:59:39;0.52;;;0.52;;
15476;SDS011;7840;42.702;23.296;2024-02-26T10:02:08;0.73;;;0.60;;
15476;SDS011;7840;42.702;23.296;2024-02-26T10:04:38;0.30;;;0.30;;
15476;SDS011;7840;42.702;23.296;2024-02-26T10:07:09;0.40;;;0.40;;
15476;SDS011;7840;42.702;23.296;2024-02-26T10:09:37;0.43;;;0.43;;
15476;SDS011;7840;42.702;23.296;2024-02-26T10:12:07;0.15;;;0.15;;
15476;SDS011;7840;42.702;23.296;2024-02-26T10:14:36;1.15;;;0.50;;
15476;SDS011;7840;42.702;23.296;2024-02-26T10:17:04;0.47;;;0.47;;
15476;SDS011;7840;42.702;23.296;2024-02-26T10:19:32;0.13;;;0.13;;
15476;SDS011;7840;42.702;23.296;2024-02-26T10:22:00;0.17;;;0.17;;
15476;SDS011;7840;42.702;23.296;2024-02-26T10:24:30;1.85;;;0.70;;
15476;SDS011;7840;42.702;23.296;2024-02-26T10:26:57;0.55;;;0.30;;
15476;SDS011;7840;42.702;23.296;2024-02-26T10:29:25;0.95;;;0.38;;
15476;SDS011;7840;42.702;23.296;2024-02-26T10:31:53;0.45;;;0.43;;
15476;SDS011;7840;42.702;23.296;2024-02-26T10:34:21;0.68;;;0.68;;
15476;SDS011;7840;42.702;23.296;2024-02-26T10:36:50;0.95;;;0.95;;
15476;SDS011;7840;42.702;23.296;2024-02-26T10:39:17;0.40;;;0.40;;
15476;SDS011;7840;42.702;23.296;2024-02-26T10:41:47;0.47;;;0.47;;
15476;SDS011;7840;42.702;23.296;2024-02-26T10:44:14;0.22;;;0.22;;
15476;SDS011;7840;42.702;23.296;2024-02-26T10:46:42;0.47;;;0.45;;
15476;SDS011;7840;42.702;23.296;2024-02-26T10:49:13;1.98;;;0.77;;
15476;SDS011;7840;42.702;23.296;2024-02-26T10:51:43;0.10;;;0.10;;
15476;SDS011;7840;42.702;23.296;2024-02-26T10:54:12;0.22;;;0.22;;
15476;SDS011;7840;42.702;23.296;2024-02-26T10:56:40;0.52;;;0.40;;
15476;SDS011;7840;42.702;23.296;2024-02-26T10:59:10;0.85;;;0.85;;
15476;SDS011;7840;42.702;23.296;2024-02-26T11:01:38;0.35;;;0.35;;
15476;SDS011;7840;42.702;23.296;2024-02-26T11:04:08;1.17;;;1.13;;
15476;SDS011;7840;42.702;23.296;2024-02-26T11:06:39;0.17;;;0.17;;
15476;SDS011;7840;42.702;23.296;2024-02-26T11:09:07;0.20;;;0.17;;
15476;SDS011;7840;42.702;23.296;2024-02-26T11:11:38;0.30;;;0.30;;
15476;SDS011;7840;42.702;23.296;2024-02-26T11:14:05;0.47;;;0.40;;
15476;SDS011;7840;42.702;23.296;2024-02-26T11:16:36;0.17;;;0.17;;
15476;SDS011;7840;42.702;23.296;2024-02-26T11:19:06;1.50;;;1.02;;
15476;SDS011;7840;42.702;23.296;2024-02-26T11:21:36;0.70;;;0.70;;
15476;SDS011;7840;42.702;23.296;2024-02-26T11:24:08;0.52;;;0.43;;
15476;SDS011;7840;42.702;23.296;2024-02-26T11:26:37;0.82;;;0.57;;
15476;SDS011;7840;42.702;23.296;2024-02-26T11:29:07;0.55;;;0.55;;
15476;SDS011;7840;42.702;23.296;2024-02-26T11:31:38;0.47;;;0.47;;
15476;SDS011;7840;42.702;23.296;2024-02-26T11:34:06;0.20;;;0.20;;
15476;SDS011;7840;42.702;23.296;2024-02-26T11:36:33;1.00;;;0.25;;
15476;SDS011;7840;42.702;23.296;2024-02-26T11:39:01;0.80;;;0.80;;
15476;SDS011;7840;42.702;23.296;2024-02-26T11:41:29;0.38;;;0.38;;
15476;SDS011;7840;42.702;23.296;2024-02-26T11:43:57;0.68;;;0.68;;
15476;SDS011;7840;42.702;23.296;2024-02-26T11:46:26;0.20;;;0.20;;
15476;SDS011;7840;42.702;23.296;2024-02-26T11:48:57;0.32;;;0.32;;
15476;SDS011;7840;42.702;23.296;2024-02-26T11:51:35;0.50;;;0.40;;
15476;SDS011;7840;42.702;23.296;2024-02-26T11:54:03;0.63;;;0.63;;
15476;SDS011;7840;42.702;23.296;2024-02-26T11:56:31;0.30;;;0.30;;
15476;SDS011;7840;42.702;23.296;2024-02-26T11:59:00;0.20;;;0.20;;
15476;SDS011;7840;42.702;23.296;2024-02-26T12:01:39;0.25;;;0.25;;
15476;SDS011;7840;42.702;23.296;2024-02-26T12:04:10;0.32;;;0.32;;
15476;SDS011;7840;42.702;23.296;2024-02-26T12:06:44;1.00;;;0.40;;
15476;SDS011;7840;42.702;23.296;2024-02-26T12:09:11;0.57;;;0.57;;
15476;SDS011;7840;42.702;23.296;2024-02-26T12:11:40;0.55;;;0.55;;
15476;SDS011;7840;42.702;23.296;2024-02-26T12:14:08;0.35;;;0.32;;
15476;SDS011;7840;42.702;23.296;2024-02-26T12:16:36;0.30;;;0.30;;
15476;SDS011;7840;42.702;23.296;2024-02-26T12:19:08;0.85;;;0.70;;
15476;SDS011;7840;42.702;23.296;2024-02-26T12:21:37;0.32;;;0.32;;
15476;SDS011;7840;42.702;23.296;2024-02-26T12:24:11;0.20;;;0.20;;
15476;SDS011;7840;42.702;23.296;2024-02-26T12:26:39;0.50;;;0.50;;
15476;SDS011;7840;42.702;23.296;2024-02-26T12:29:06;0.77;;;0.77;;
15476;SDS011;7840;42.702;23.296;2024-02-26T12:31:34;0.10;;;0.10;;
15476;SDS011;7840;42.702;23.296;2024-02-26T12:34:04;0.43;;;0.43;;
15476;SDS011;7840;42.702;23.296;2024-02-26T12:36:33;0.38;;;0.30;;
15476;SDS011;7840;42.702;23.296;2024-02-26T12:39:00;0.30;;;0.30;;
15476;SDS011;7840;42.702;23.296;2024-02-26T12:41:30;0.20;;;0.20;;
15476;SDS011;7840;42.702;23.296;2024-02-26T12:43:58;0.30;;;0.30;;
15476;SDS011;7840;42.702;23.296;2024-02-26T12:46:26;0.70;;;0.45;;
15476;SDS011;7840;42.702;23.296;2024-02-26T12:48:55;0.63;;;0.63;;
15476;SDS011;7840;42.702;23.296;2024-02-26T12:51:24;0.40;;;0.40;;
15476;SDS011;7840;42.702;23.296;2024-02-26T12:53:53;0.75;;;0.55;;
15476;SDS011;7840;42.702;23.296;2024-02-26T12:56:21;0.35;;;0.35;;
15476;SDS011;7840;42.702;23.296;2024-02-26T12:58:49;0.40;;;0.40;;
15476;SDS011;7840;42.702;23.296;2024-02-26T13:01:17;0.30;;;0.30;;
15476;SDS011;7840;42.702;23.296;2024-02-26T13:03:45;0.45;;;0.45;;
15476;SDS011;7840;42.702;23.296;2024-02-26T13:06:13;1.70;;;0.75;;
15476;SDS011;7840;42.702;23.296;2024-02-26T13:08:40;0.17;;;0.17;;
15476;SDS011;7840;42.702;23.296;2024-02-26T13:11:09;0.40;;;0.22;;
15476;SDS011;7840;42.702;23.296;2024-02-26T13:13:37;0.63;;;0.50;;
15476;SDS011;7840;42.702;23.296;2024-02-26T13:16:04;0.52;;;0.52;;
15476;SDS011;7840;42.702;23.296;2024-02-26T13:18:33;0.68;;;0.63;;
15476;SDS011;7840;42.702;23.296;2024-02-26T13:21:08;0.80;;;0.45;;
15476;SDS011;7840;42.702;23.296;2024-02-26T13:23:36;0.28;;;0.28;;
15476;SDS011;7840;42.702;23.296;2024-02-26T13:26:03;2.60;;;1.00;;
15476;SDS011;7840;42.702;23.296;2024-02-26T13:28:32;1.38;;;1.25;;
15476;SDS011;7840;42.702;23.296;2024-02-26T13:31:00;1.23;;;1.13;;
15476;SDS011;7840;42.702;23.296;2024-02-26T13:33:30;0.45;;;0.45;;
15476;SDS011;7840;42.702;23.296;2024-02-26T13:35:58;0.70;;;0.45;;
15476;SDS011;7840;42.702;23.296;2024-02-26T13:38:25;0.40;;;0.40;;
15476;SDS011;7840;42.702;23.296;2024-02-26T13:40:53;0.43;;;0.43;;
15476;SDS011;7840;42.702;23.296;2024-02-26T13:43:21;0.30;;;0.30;;
15476;SDS011;7840;42.702;23.296;2024-02-26T13:45:49;0.45;;;0.45;;
15476;SDS011;7840;42.702;23.296;2024-02-26T13:48:17;0.47;;;0.47;;
15476;SDS011;7840;42.702;23.296;2024-02-26T13:50:44;0.43;;;0.43;;
15476;SDS011;7840;42.702;23.296;2024-02-26T13:53:12;0.20;;;0.20;;
15476;SDS011;7840;42.702;23.296;2024-02-26T13:55:40;1.20;;;0.40;;
15476;SDS011;7840;42.702;23.296;2024-02-26T13:58:08;0.52;;;0.52;;
15476;SDS011;7840;42.702;23.296;2024-02-26T14:00:36;0.10;;;0.10;;
15476;SDS011;7840;42.702;23.296;2024-02-26T14:03:12;0.15;;;0.15;;
15476;SDS011;7840;42.702;23.296;2024-02-26T14:05:39;0.28;;;0.28;;
15476;SDS011;7840;42.702;23.296;2024-02-26T14:08:07;0.20;;;0.20;;
15476;SDS011;7840;42.702;23.296;2024-02-26T14:10:34;0.13;;;0.13;;
15476;SDS011;7840;42.702;23.296;2024-02-26T14:13:02;0.20;;;0.20;;
15476;SDS011;7840;42.702;23.296;2024-02-26T14:15:30;0.47;;;0.47;;
15476;SDS011;7840;42.702;23.296;2024-02-26T14:17:57;0.22;;;0.22;;
15476;SDS011;7840;42.702;23.296;2024-02-26T14:20:29;1.55;;;0.63;;
15476;SDS011;7840;42.702;23.296;2024-02-26T14:22:56;1.10;;;0.85;;
15476;SDS011;7840;42.702;23.296;2024-02-26T14:25:25;0.00;;;0.00;;
15476;SDS011;7840;42.702;23.296;2024-02-26T14:27:55;0.85;;;0.38;;
15476;SDS011;7840;42.702;23.296;2024-02-26T14:30:24;1.08;;;0.40;;
15476;SDS011;7840;42.702;23.296;2024-02-26T14:32:52;0.20;;;0.20;;
15476;SDS011;7840;42.702;23.296;2024-02-26T14:35:19;0.45;;;0.45;;
15476;SDS011;7840;42.702;23.296;2024-02-26T14:37:48;1.25;;;0.20;;
15476;SDS011;7840;42.702;23.296;2024-02-26T14:40:17;0.98;;;0.43;;
15476;SDS011;7840;42.702;23.296;2024-02-26T14:42:44;0.43;;;0.25;;
15476;SDS011;7840;42.702;23.296;2024-02-26T14:45:12;0.25;;;0.25;;
15476;SDS011;7840;42.702;23.296;2024-02-26T14:47:39;0.00;;;0.00;;
15476;SDS011;7840;42.702;23.296;2024-02-26T14:50:06;0.57;;;0.57;;
15476;SDS011;7840;42.702;23.296;2024-02-26T14:52:34;0.65;;;0.65;;
15476;SDS011;7840;42.702;23.296;2024-02-26T14:55:02;2.45;;;0.40;;
15476;SDS011;7840;42.702;23.296;2024-02-26T14:57:30;0.20;;;0.20;;
15476;SDS011;7840;42.702;23.296;2024-02-26T14:59:58;0.17;;;0.17;;